Time;durP1;ratioP1;P1;durP2;ratioP2;P2;SDS_P1;SDS_P2;PMS_P1;PMS_P2;Temp;Humidity;BMP_temperature;BMP_pressure;BME280_temperature;BME280_humidity;BME280_pressure;Samples;Min_cycle;Max_cycle;Signal;HPM_P1;HPM_P2
2022/10/16 05:07:22;;;;;;;25.73;11.07;;;;;;;4.57;70.03;101017.72;5812663;23;20067;-91
2022/10/16 05:09:48;;;;;;;24.80;11.57;;;;;;;4.17;70.01;100953.31;4917265;29;20048;-91
2022/10/16 05:12:14;;;;;;;26.48;11.80;;;;;;;4.41;69.80;100973.16;4915467;29;20292;-90
2022/10/16 05:14:41;;;;;;;33.20;12.35;;;;;;;4.77;69.63;101017.41;4900889;29;20055;-91
2022/10/16 05:17:08;;;;;;;28.23;12.50;;;;;;;4.46;69.12;100953.50;4911426;29;20047;-93
2022/10/16 05:19:34;;;;;;;24.55;12.45;;;;;;;4.89;69.65;101018.22;4922221;29;20043;-89
2022/10/16 05:22:00;;;;;;;34.25;14.23;;;;;;;4.70;69.06;100989.56;4903204;29;20521;-90
2022/10/16 05:24:26;;;;;;;30.30;12.88;;;;;;;4.81;68.84;101013.16;4918553;29;20449;-89
2022/10/16 05:26:52;;;;;;;27.33;12.15;;;;;;;4.72;68.66;100990.19;4918769;29;20078;-92
2022/10/16 05:29:19;;;;;;;23.67;10.93;;;;;;;4.92;68.42;101009.63;4935458;29;20516;-90
2022/10/16 05:31:45;;;;;;;21.08;10.65;;;;;;;5.00;68.43;101013.91;4904533;29;20039;-93
2022/10/16 05:34:11;;;;;;;21.25;9.45;;;;;;;5.09;67.68;101030.63;4904039;29;20130;-88
2022/10/16 05:36:37;;;;;;;26.65;10.50;;;;;;;4.88;67.53;100997.63;4937129;29;20063;-88
2022/10/16 05:39:03;;;;;;;18.93;9.60;;;;;;;4.88;67.64;100986.78;4900368;29;20040;-89
2022/10/16 05:41:29;;;;;;;18.98;8.68;;;;;;;4.95;67.33;100989.38;4926086;29;20044;-89
2022/10/16 05:43:55;;;;;;;24.65;9.52;;;;;;;4.99;67.06;100985.13;4916020;29;20095;-91
2022/10/16 05:46:21;;;;;;;29.85;9.48;;;;;;;5.15;66.83;100994.47;4919083;29;20445;-90
2022/10/16 05:48:48;;;;;;;19.92;10.32;;;;;;;5.30;66.71;101015.69;4924897;29;20075;-91
2022/10/16 05:51:14;;;;;;;20.55;8.82;;;;;;;5.38;66.44;101013.44;4932145;29;20540;-88
2022/10/16 05:53:41;;;;;;;19.33;8.68;;;;;;;5.45;66.10;101026.06;4921078;29;20048;-89
2022/10/16 05:56:10;;;;;;;21.15;8.93;;;;;;;5.34;66.01;100997.88;4919285;29;20055;-92
2022/10/16 05:58:37;;;;;;;24.33;9.70;;;;;;;5.37;65.77;100997.41;4938509;29;20081;-90
2022/10/16 06:01:10;;;;;;;25.33;8.80;;;;;;;5.41;65.47;100988.56;4952360;29;20020;-89
2022/10/16 06:03:36;;;;;;;18.30;8.98;;;;;;;5.81;65.32;101047.47;4938208;29;20043;-91
2022/10/16 06:06:17;;;;;;;23.73;8.70;;;;;;;5.52;65.21;100995.00;4941772;29;20052;-91
2022/10/16 06:08:45;;;;;;;21.60;9.30;;;;;;;5.91;65.24;101052.28;4933842;29;20107;-92
2022/10/16 06:11:16;;;;;;;24.20;9.85;;;;;;;5.65;64.85;101019.19;4921659;29;20050;-91
2022/10/16 06:13:42;;;;;;;19.83;10.15;;;;;;;5.89;64.56;101051.69;4921043;29;20062;-90
2022/10/16 06:16:10;;;;;;;30.38;9.90;;;;;;;5.71;64.50;101011.16;4903327;29;20044;-89
2022/10/16 06:18:36;;;;;;;19.15;9.95;;;;;;;6.00;64.69;101036.50;4932989;29;20051;-90
2022/10/16 06:21:12;;;;;;;20.15;9.82;;;;;;;5.79;64.27;101008.88;4903343;29;20050;-91
2022/10/16 06:23:38;;;;;;;30.08;9.77;;;;;;;6.00;64.19;101031.06;4915506;29;20048;-92
2022/10/16 06:26:09;;;;;;;25.05;10.05;;;;;;;6.04;64.00;101027.63;4899789;29;20174;-88
2022/10/16 06:28:35;;;;;;;22.40;9.57;;;;;;;5.99;63.97;101019.38;4916553;29;20039;-89
2022/10/16 06:31:03;;;;;;;22.60;9.52;;;;;;;6.38;63.86;101059.50;4903614;29;20060;-92
2022/10/16 06:33:30;;;;;;;31.73;10.52;;;;;;;6.10;63.18;101014.97;4901107;29;20120;-92
2022/10/16 06:36:16;;;;;;;47.28;24.70;;;;;;;6.07;63.41;101007.31;4868315;29;20056;-90
2022/10/16 06:38:43;;;;;;;25.20;11.73;;;;;;;6.20;63.11;101020.59;4913556;29;20045;-91
2022/10/16 06:41:15;;;;;;;32.47;13.07;;;;;;;6.32;63.45;101021.41;4902355;29;20058;-91
2022/10/16 06:43:42;;;;;;;59.97;14.02;;;;;;;6.35;63.20;101023.59;4906930;29;20081;-91
2022/10/16 06:46:11;;;;;;;35.50;12.65;;;;;;;6.54;62.89;101034.28;4886874;29;20048;-91
2022/10/16 06:48:38;;;;;;;26.65;10.10;;;;;;;6.68;62.53;101045.66;4883873;29;20139;-90
2022/10/16 06:51:09;;;;;;;24.40;10.85;;;;;;;6.76;62.82;101053.44;4882663;29;20048;-90
2022/10/16 06:53:37;;;;;;;35.83;15.70;;;;;;;6.65;62.71;101036.09;4881226;29;20524;-91
2022/10/16 06:56:15;;;;;;;28.15;12.80;;;;;;;6.78;62.63;101038.50;4892788;29;20064;-92
2022/10/16 06:58:42;;;;;;;30.50;11.43;;;;;;;6.99;62.47;101064.16;4903964;29;20640;-91
2022/10/16 07:01:09;;;;;;;28.40;10.82;;;;;;;6.97;62.21;101058.13;4897031;29;20037;-91
2022/10/16 07:03:39;;;;;;;38.70;11.30;;;;;;;6.94;62.45;101045.03;4881569;29;20052;-93
2022/10/16 07:06:09;;;;;;;33.53;11.55;;;;;;;7.15;62.48;101062.53;4893917;29;20044;-89
2022/10/16 07:08:37;;;;;;;32.45;12.18;;;;;;;7.20;62.24;101062.59;4898366;29;20049;-90
2022/10/16 07:11:09;;;;;;;30.40;13.68;;;;;;;7.23;62.07;101059.38;4903109;29;20521;-91
2022/10/16 07:13:41;;;;;;;31.05;12.90;;;;;;;7.21;61.67;101053.34;4920497;29;20051;-92
2022/10/16 07:16:19;;;;;;;27.60;13.20;;;;;;;7.32;61.97;101054.34;4919717;29;20397;-89
2022/10/16 07:18:46;;;;;;;41.70;13.60;;;;;;;7.39;61.90;101059.63;4934660;29;20043;-91
2022/10/16 07:21:13;;;;;;;;;;;;;;;7.57;61.92;101072.94;4932843;29;20044;-92
2022/10/16 07:23:40;;;;;;;28.63;13.60;;;;;;;7.59;61.77;101059.94;4919848;29;19941;-89
2022/10/16 07:26:07;;;;;;;33.40;13.75;;;;;;;7.59;61.52;101059.09;4919801;29;20055;-91
2022/10/16 07:28:33;;;;;;;29.73;14.70;;;;;;;7.72;61.48;101086.78;4923034;29;20048;-89
2022/10/16 07:31:02;;;;;;;30.45;12.63;;;;;;;7.70;61.75;101069.06;4935452;29;20047;-90
2022/10/16 07:33:28;;;;;;;36.00;11.73;;;;;;;7.82;60.96;101067.06;4904464;29;20075;-89
2022/10/16 07:35:55;;;;;;;34.63;14.88;;;;;;;7.88;61.44;101054.31;4936551;29;20172;-90
2022/10/16 07:38:22;;;;;;;26.50;14.00;;;;;;;8.02;61.30;101057.50;4935452;29;20126;-91
2022/10/16 07:40:56;;;;;;;31.13;14.23;;;;;;;8.15;61.19;101065.31;4935727;29;20034;-92
2022/10/16 07:43:22;;;;;;;28.02;11.68;;;;;;;8.05;60.63;101038.75;4936690;29;20040;-92
2022/10/16 07:45:49;;;;;;;32.63;12.88;;;;;;;8.28;60.26;101069.50;4925335;29;20095;-90
2022/10/16 07:48:16;;;;;;;;;;;;;;;8.40;60.55;101067.50;4904451;29;20903;-90
2022/10/16 07:50:42;;;;;;;50.85;14.90;;;;;;;8.36;59.98;101042.66;4939407;29;19922;-89
2022/10/16 07:53:09;;;;;;;36.55;12.77;;;;;;;8.52;59.56;101046.41;4937439;29;20059;-89
2022/10/16 07:55:35;;;;;;;37.50;16.33;;;;;;;8.67;59.61;101062.06;4920189;29;20134;-91
2022/10/16 07:58:01;;;;;;;56.90;12.63;;;;;;;8.73;59.24;101047.41;4919810;29;20039;-91
2022/10/16 08:00:27;;;;;;;27.00;10.40;;;;;;;8.81;58.76;101057.06;4930059;29;20036;-92
2022/10/16 08:02:53;;;;;;;30.50;11.90;;;;;;;8.86;58.12;101048.91;4934747;29;20047;-89
2022/10/16 08:05:20;;;;;;;42.70;12.32;;;;;;;8.94;57.88;101051.16;4918894;29;20548;-87
2022/10/16 08:07:50;;;;;;;22.13;10.82;;;;;;;8.96;57.63;101049.00;4935554;29;20052;-91
2022/10/16 08:10:18;;;;;;;23.23;9.18;;;;;;;9.14;56.95;101067.72;4918459;29;20114;-92
2022/10/16 08:12:44;;;;;;;52.55;12.20;;;;;;;9.04;56.81;101044.94;4919619;29;20042;-89
2022/10/16 08:15:11;;;;;;;42.45;14.48;;;;;;;9.21;56.65;101047.56;4918640;29;20051;-89
2022/10/16 08:17:38;;;;;;;42.65;14.13;;;;;;;9.32;56.15;101054.75;4918518;29;20036;-91
2022/10/16 08:20:05;;;;;;;25.23;8.98;;;;;;;9.36;55.54;101053.13;4935909;29;20032;-88
2022/10/16 08:22:31;;;;;;;;;;;;;;;9.45;55.36;101065.19;4919541;29;20031;-94
2022/10/16 08:24:58;;;;;;;41.23;9.50;;;;;;;9.48;55.70;101066.59;4918936;29;19919;-90
2022/10/16 08:27:24;;;;;;;31.20;10.13;;;;;;;9.52;55.75;101060.34;4917682;29;20038;-88
2022/10/16 08:29:49;;;;;;;40.90;13.32;;;;;;;9.50;55.33;101046.09;4917130;29;20039;-86
2022/10/16 08:32:16;;;;;;;69.43;12.13;;;;;;;9.62;55.53;101045.94;4917677;29;20047;-89
2022/10/16 08:34:43;;;;;;;31.33;9.07;;;;;;;9.81;54.76;101062.69;4916639;29;20059;-87
2022/10/16 08:37:11;;;;;;;38.05;10.18;;;;;;;9.77;55.35;101032.38;4917881;29;20086;-88
2022/10/16 08:39:37;;;;;;;23.55;7.65;;;;;;;9.94;54.41;101054.03;4933060;29;20501;-90
2022/10/16 08:42:27;;;;;;;43.25;8.75;;;;;;;9.69;54.05;101010.19;4900848;29;20035;-86
2022/10/16 08:45:00;;;;;;;23.60;9.07;;;;;;;10.08;53.71;101060.63;4932038;29;20044;-88
2022/10/16 08:47:44;;;;;;;19.98;8.20;;;;;;;10.11;52.96;101060.09;4926193;29;20130;-87
2022/10/16 08:50:13;;;;;;;38.83;10.55;;;;;;;10.10;53.24;101046.72;4934002;29;20043;-89
2022/10/16 08:52:43;;;;;;;55.58;11.85;;;;;;;10.15;52.98;101032.25;4916372;29;20043;-88
2022/10/16 08:55:21;;;;;;;160.10;75.65;;;;;;;10.10;52.26;101014.75;4916451;29;20043;-91
2022/10/16 08:57:50;;;;;;;31.70;14.80;;;;;;;10.45;52.55;101051.50;4932168;29;20035;-89
2022/10/16 09:00:17;;;;;;;36.45;13.50;;;;;;;10.52;52.43;101049.31;4916987;29;20036;-90
2022/10/16 09:02:53;;;;;;;31.38;10.70;;;;;;;10.64;51.76;101042.81;4932177;29;20053;-89
2022/10/16 09:05:23;;;;;;;23.70;9.02;;;;;;;10.45;51.63;101015.94;4933778;29;20412;-91
2022/10/16 09:07:55;;;;;;;23.63;9.43;;;;;;;10.78;52.04;101050.19;4933169;29;20070;-90
2022/10/16 09:10:42;;;;;;;279.58;18.98;;;;;;;10.81;51.33;101030.50;4933449;29;20536;-91
2022/10/16 09:13:20;;;;;;;38.53;9.68;;;;;;;11.03;51.37;101041.19;4932663;29;20040;-88
2022/10/16 09:15:57;;;;;;;42.53;14.85;;;;;;;11.10;50.39;101051.06;4931114;29;20044;-87
2022/10/16 09:18:29;;;;;;;;;;;;;;;11.17;50.51;101046.13;4946360;29;20059;-88
2022/10/16 09:21:04;;;;;;;28.90;11.10;;;;;;;11.14;49.84;101022.84;4933380;29;19918;-87
2022/10/16 09:23:35;;;;;;;28.70;11.73;;;;;;;11.16;49.45;101023.41;4933733;29;20067;-90
2022/10/16 09:26:05;;;;;;;19.38;7.65;;;;;;;11.38;49.44;101042.25;4916193;29;20497;-89
2022/10/16 09:28:32;;;;;;;25.75;9.32;;;;;;;11.19;47.60;101005.59;4933385;29;20040;-90
2022/10/16 09:30:58;;;;;;;25.58;6.30;;;;;;;11.25;47.13;101005.31;4933588;29;20088;-87
2022/10/16 09:33:39;;;;;;;20.98;7.72;;;;;;;11.29;47.56;101014.63;4932636;29;20046;-89
2022/10/16 09:36:06;;;;;;;18.88;6.63;;;;;;;11.44;46.96;101029.38;4943805;29;20103;-90
2022/10/16 09:38:33;;;;;;;;;;;;;;;11.56;47.09;101034.56;4885577;29;20039;-92
2022/10/16 09:41:02;;;;;;;39.72;6.25;;;;;;;11.61;46.36;101040.03;4916202;29;19973;-90
2022/10/16 09:43:46;;;;;;;31.45;4.70;;;;;;;11.52;46.08;101020.59;4900133;29;20044;-90
2022/10/16 09:46:24;;;;;;;30.67;6.65;;;;;;;11.61;46.42;101015.38;4931249;29;20046;-90
2022/10/16 09:48:53;;;;;;;34.00;4.85;;;;;;;11.71;46.00;101018.06;4934906;29;20166;-88
2022/10/16 09:51:30;;;;;;;17.90;6.03;;;;;;;11.86;46.14;101031.78;4926175;29;20130;-89
2022/10/16 09:54:14;;;;;;;15.32;6.18;;;;;;;11.79;46.05;101002.97;4901675;29;20044;-90
2022/10/16 09:56:41;;;;;;;18.67;6.70;;;;;;;11.74;45.83;100999.16;4946479;29;20054;-89
2022/10/16 09:59:15;;;;;;;;;;;;;;;12.09;46.33;101030.31;4935242;29;20094;-90
2022/10/16 10:01:45;;;;;;;22.77;7.15;;;;;;;11.80;45.00;101002.72;4933144;29;19926;-90
2022/10/16 10:04:12;;;;;;;156.90;10.13;;;;;;;11.91;44.80;101009.81;4918213;29;20409;-90
2022/10/16 10:06:45;;;;;;;22.83;5.60;;;;;;;12.04;44.78;101022.09;4916192;29;20122;-88
2022/10/16 10:09:38;;;;;;;12.57;4.63;;;;;;;12.06;45.18;101025.38;4930985;29;20059;-90
2022/10/16 10:12:06;;;;;;;21.83;6.70;;;;;;;12.02;52.40;100985.94;4912444;29;20044;-90
2022/10/16 10:14:36;;;;;;;21.45;5.43;;;;;;;12.26;44.58;101018.16;4918037;29;20132;-92
2022/10/16 10:17:08;;;;;;;113.10;10.93;;;;;;;12.07;44.95;100993.31;4902524;29;20047;-89
2022/10/16 10:19:39;;;;;;;21.08;7.05;;;;;;;12.16;44.21;101014.38;4941999;29;20090;-90
2022/10/16 10:22:18;;;;;;;17.67;5.82;;;;;;;12.15;44.00;101017.38;4918854;29;20043;-89
2022/10/16 10:24:55;;;;;;;15.68;6.20;;;;;;;12.06;44.41;100997.97;4935248;29;20593;-89
2022/10/16 10:27:29;;;;;;;16.38;5.63;;;;;;;11.95;43.96;100971.69;4935708;29;20040;-88
2022/10/16 10:30:05;;;;;;;49.45;6.70;;;;;;;12.32;43.90;101011.56;4937350;29;20548;-90
2022/10/16 10:32:40;;;;;;;17.42;5.93;;;;;;;12.17;44.23;100996.81;4945113;29;20046;-89
2022/10/16 10:35:14;;;;;;;21.85;6.53;;;;;;;12.41;44.96;101009.84;4955668;29;20048;-87
2022/10/16 10:37:51;;;;;;;33.03;9.13;;;;;;;12.33;43.95;100988.50;4948165;29;20047;-89
2022/10/16 10:40:39;;;;;;;19.80;7.00;;;;;;;12.43;43.94;100999.41;4935897;29;20060;-88
2022/10/16 10:43:42;;;;;;;19.90;7.18;;;;;;;12.58;44.19;101012.19;4919622;29;20412;-88
2022/10/16 10:46:17;;;;;;;30.05;6.10;;;;;;;12.49;43.81;101001.03;4935131;29;20647;-88
2022/10/16 10:48:57;;;;;;;18.45;6.10;;;;;;;12.37;43.98;100968.44;4935803;29;20135;-91
2022/10/16 10:51:39;;;;;;;12.75;5.75;;;;;;;12.85;44.33;101006.25;4937792;29;20051;-92
2022/10/16 10:54:25;;;;;;;15.52;5.38;;;;;;;12.96;44.21;101005.06;4936802;29;20048;-93
2022/10/16 10:57:27;;;;;;;10.80;5.00;;;;;;;13.10;45.10;100996.97;4936305;29;20050;-91
2022/10/16 11:00:20;;;;;;;14.50;4.70;;;;;;;13.16;42.89;100999.38;4920704;29;20067;-89
2022/10/16 11:02:52;;;;;;;36.97;5.70;;;;;;;13.01;43.20;101005.00;4936544;29;20039;-89
2022/10/16 11:05:38;;;;;;;15.23;4.25;;;;;;;12.94;42.77;100990.78;4919210;29;20528;-91
2022/10/16 11:08:21;;;;;;;13.93;4.40;;;;;;;12.77;43.29;100974.75;4914512;29;20048;-89
2022/10/16 11:11:00;;;;;;;20.00;4.95;;;;;;;12.84;43.24;100967.00;4898492;29;20291;-89
2022/10/16 11:13:41;;;;;;;16.02;5.13;;;;;;;12.99;43.10;100995.44;4915923;29;20040;-92
2022/10/16 11:16:17;;;;;;;18.17;4.93;;;;;;;12.85;43.39;100948.63;4928444;29;20036;-90
2022/10/16 11:19:03;;;;;;;68.15;8.00;;;;;;;13.00;43.33;100975.09;4918944;29;20043;-88
2022/10/16 11:21:36;;;;;;;13.85;5.40;;;;;;;13.11;43.44;100988.47;4934696;29;20406;-91
2022/10/16 11:24:15;;;;;;;21.48;6.95;;;;;;;12.98;42.64;100960.84;4918497;29;20091;-92
2022/10/16 11:26:43;;;;;;;22.33;7.47;;;;;;;12.80;42.89;100946.72;4917420;29;20135;-90
2022/10/16 11:29:20;;;;;;;16.00;4.80;;;;;;;13.28;43.04;100982.56;4916382;29;20067;-92
2022/10/16 11:32:06;;;;;;;10.35;5.18;;;;;;;13.20;42.78;100969.41;4901200;29;20040;-90
2022/10/16 11:34:50;;;;;;;21.38;8.77;;;;;;;13.16;42.79;100962.88;4916800;29;20048;-93
2022/10/16 11:37:23;;;;;;;22.05;7.97;;;;;;;13.26;42.71;100975.72;4902192;29;20055;-87
2022/10/16 11:39:52;;;;;;;17.50;6.97;;;;;;;13.05;42.88;100942.94;4917498;29;20498;-91
2022/10/16 11:42:41;;;;;;;22.10;7.00;;;;;;;13.23;42.89;100979.81;4900369;29;20043;-88
2022/10/16 11:45:07;;;;;;;37.10;14.68;;;;;;;13.22;43.38;100971.88;4914075;29;20068;-86
2022/10/16 11:47:41;;;;;;;24.38;8.73;;;;;;;13.05;42.54;100942.94;4884167;29;20067;-88
2022/10/16 11:50:25;;;;;;;27.15;10.73;;;;;;;13.26;42.33;100971.03;4933269;29;20414;-90
2022/10/16 11:53:05;;;;;;;56.67;22.45;;;;;;;13.25;42.63;100957.59;4899958;29;20158;-87
2022/10/16 11:55:40;;;;;;;75.68;20.52;;;;;;;13.34;42.72;100975.06;4899952;29;20048;-92
2022/10/16 11:58:40;;;;;;;31.85;11.75;;;;;;;13.24;42.71;100973.25;4931408;29;20082;-87
2022/10/16 12:01:08;;;;;;;18.63;8.20;;;;;;;13.14;42.06;100967.81;4915525;29;20036;-93
2022/10/16 12:04:02;;;;;;;31.80;5.95;;;;;;;12.93;42.73;100939.75;4885314;29;20550;-91
2022/10/16 12:06:53;;;;;;;35.00;14.57;;;;;;;13.19;42.95;100969.72;4914112;29;20395;-91
2022/10/16 12:09:28;;;;;;;41.80;17.90;;;;;;;13.16;42.65;100963.69;4929573;29;20056;-86
2022/10/16 12:11:55;;;;;;;35.45;11.82;;;;;;;13.17;42.99;100962.56;4916134;29;20040;-91
2022/10/16 12:14:35;;;;;;;32.78;10.95;;;;;;;13.13;42.37;100964.25;4915060;29;20526;-87
2022/10/16 12:17:25;;;;;;;27.02;10.75;;;;;;;13.19;43.13;100969.72;4886217;29;20079;-92
2022/10/16 12:20:00;;;;;;;45.35;19.40;;;;;;;13.08;43.22;100947.84;4916339;29;20073;-87
2022/10/16 12:22:30;;;;;;;21.75;7.55;;;;;;;13.15;42.46;100964.81;4915494;29;20414;-91
2022/10/16 12:24:57;;;;;;;13.40;5.38;;;;;;;12.93;42.45;100935.06;4932875;29;20048;-86
2022/10/16 12:27:33;;;;;;;;;;;;;;;13.08;42.70;100963.50;4917299;29;20038;-92
2022/10/16 12:30:02;;;;;;;26.80;10.70;;;;;;;12.88;42.33;100942.53;4902335;29;19930;-91
2022/10/16 12:32:36;;;;;;;16.77;6.35;;;;;;;12.99;42.33;100954.25;4917636;29;20035;-91
2022/10/16 12:35:04;;;;;;;15.55;6.90;;;;;;;12.79;42.76;100933.31;4916796;29;20420;-93
2022/10/16 12:37:38;;;;;;;17.85;7.60;;;;;;;12.86;42.87;100934.59;4922077;29;20092;-90
2022/10/16 12:40:23;;;;;;;21.30;7.43;;;;;;;12.96;43.58;100935.63;4901529;29;20044;-89
2022/10/16 12:42:49;;;;;;;19.17;9.55;;;;;;;13.05;43.52;100942.94;4915005;29;20032;-88
2022/10/16 12:45:42;;;;;;;21.08;6.75;;;;;;;13.07;43.25;100945.38;4917776;29;20051;-90
2022/10/16 12:48:22;;;;;;;25.70;12.27;;;;;;;12.93;43.26;100926.03;4913261;29;20036;-92
2022/10/16 12:50:48;;;;;;;51.85;17.85;;;;;;;13.03;43.89;100945.13;4916512;29;20047;-90
2022/10/16 12:53:26;;;;;;;55.28;21.98;;;;;;;13.01;43.98;100943.78;4915221;29;20421;-90
2022/10/16 12:55:58;;;;;;;17.13;6.22;;;;;;;12.96;42.92;100954.84;4916365;29;20221;-93
2022/10/16 12:58:33;;;;;;;24.98;7.05;;;;;;;12.82;43.82;100930.81;4914617;29;20043;-93
2022/10/16 13:01:26;;;;;;;17.00;7.43;;;;;;;12.97;43.66;100956.47;4928202;29;20092;-86
2022/10/16 13:04:27;;;;;;;13.35;5.93;;;;;;;12.85;43.22;100954.94;4912575;29;20128;-87
2022/10/16 13:07:20;;;;;;;20.15;6.75;;;;;;;12.69;43.67;100946.00;4877227;29;20109;-86
2022/10/16 13:10:03;;;;;;;19.83;10.20;;;;;;;12.74;43.94;100952.53;4910439;29;20470;-89
2022/10/16 13:12:54;;;;;;;23.98;8.32;;;;;;;12.65;43.52;100952.34;4911945;29;20483;-93
2022/10/16 13:15:37;;;;;;;19.30;9.10;;;;;;;12.53;43.70;100940.91;4928535;29;20088;-93
2022/10/16 13:18:21;;;;;;;18.48;7.88;;;;;;;12.39;44.04;100914.13;4911117;29;20075;-91
2022/10/16 13:21:18;;;;;;;106.80;9.07;;;;;;;12.43;44.04;100934.41;4895387;29;20067;-87
2022/10/16 13:24:02;;;;;;;;;;;;;;;12.51;44.56;100945.88;4912724;29;20044;-87
2022/10/16 13:26:44;;;;;;;13.13;5.13;;;;;;;12.13;44.51;100916.25;4931279;29;20432;-88
2022/10/16 13:29:10;;;;;;;27.27;7.03;;;;;;;11.99;44.60;100902.34;4895426;29;20047;-88
2022/10/16 13:31:39;;;;;;;31.20;8.55;;;;;;;12.08;44.87;100919.00;4926303;29;20644;-87
2022/10/16 13:34:06;;;;;;;15.52;7.05;;;;;;;12.21;44.90;100950.44;4912126;29;20048;-88
2022/10/16 13:36:52;;;;;;;11.32;5.78;;;;;;;12.08;44.78;100938.19;4929139;29;20044;-92
2022/10/16 13:39:27;;;;;;;20.92;7.10;;;;;;;12.05;45.12;100943.41;4910276;29;20131;-87
2022/10/16 13:42:12;;;;;;;16.67;7.88;;;;;;;12.07;45.86;100954.94;4895291;29;20063;-89
2022/10/16 13:44:49;;;;;;;17.95;6.70;;;;;;;11.81;45.73;100918.59;4880127;29;20040;-92
2022/10/16 13:47:19;;;;;;;47.95;9.63;;;;;;;11.95;45.93;100931.44;4894330;29;20048;-89
2022/10/16 13:49:46;;;;;;;36.25;12.07;;;;;;;11.82;46.58;100921.06;4907252;29;20857;-89
2022/10/16 13:52:21;;;;;;;38.58;11.98;;;;;;;11.91;46.43;100955.00;4909295;29;20040;-90
2022/10/16 13:54:47;;;;;;;29.73;12.93;;;;;;;11.48;46.72;100891.59;4905883;29;20052;-88
2022/10/16 13:57:15;;;;;;;51.25;16.88;;;;;;;11.70;47.17;100946.03;4910645;29;20039;-90
2022/10/16 13:59:43;;;;;;;44.70;14.55;;;;;;;11.57;46.99;100940.34;4910573;29;20029;-90
2022/10/16 14:02:28;;;;;;;65.03;17.17;;;;;;;11.62;47.38;100946.63;4916851;29;20048;-90
2022/10/16 14:04:56;;;;;;;53.75;17.33;;;;;;;11.57;47.83;100951.28;4916372;29;20059;-90
2022/10/16 14:07:31;;;;;;;41.97;10.90;;;;;;;11.34;47.34;100937.13;4938225;29;20116;-89
2022/10/16 14:10:21;;;;;;;36.97;11.15;;;;;;;11.36;47.45;100940.41;4950751;28;20534;-89
2022/10/16 14:12:56;;;;;;;33.20;13.98;;;;;;;11.42;48.42;100944.78;4923979;29;20059;-87
2022/10/16 14:15:22;;;;;;;43.45;19.00;;;;;;;10.99;48.47;100886.00;4925235;29;20035;-87
2022/10/16 14:17:52;;;;;;;45.35;20.42;;;;;;;11.05;48.87;100898.59;4921095;29;20501;-91
2022/10/16 14:20:21;;;;;;;76.45;26.58;;;;;;;10.77;49.24;100868.00;4912777;29;20498;-87
2022/10/16 14:23:00;;;;;;;82.68;34.30;;;;;;;10.75;49.39;100883.88;4933425;29;20853;-90
2022/10/16 14:25:29;;;;;;;43.13;15.52;;;;;;;11.04;49.72;100947.03;4918220;29;20489;-91
2022/10/16 14:28:17;;;;;;;40.28;11.65;;;;;;;10.91;50.12;100947.59;4918045;29;20953;-89
2022/10/16 14:30:55;;;;;;;25.33;10.93;;;;;;;10.88;50.41;100950.06;4912455;29;20042;-90
2022/10/16 14:33:30;;;;;;;33.30;14.93;;;;;;;10.81;50.68;100942.13;4930152;29;20035;-90
2022/10/16 14:36:18;;;;;;;35.88;14.80;;;;;;;10.67;51.02;100941.06;4933982;29;20040;-90
2022/10/16 14:39:06;;;;;;;42.50;18.88;;;;;;;10.70;51.26;100955.00;4909396;29;20462;-90
2022/10/16 14:41:41;;;;;;;52.08;16.08;;;;;;;10.63;51.49;100956.34;4905380;29;20512;-93
2022/10/16 14:44:11;;;;;;;55.00;17.02;;;;;;;10.32;51.51;100920.78;4930122;29;20040;-92
2022/10/16 14:46:41;;;;;;;38.33;14.60;;;;;;;10.27;51.70;100945.41;4944880;29;20039;-92
2022/10/16 14:49:20;;;;;;;45.70;16.30;;;;;;;10.42;51.81;100959.06;4911707;29;20063;-87
2022/10/16 14:51:46;;;;;;;45.30;18.73;;;;;;;10.20;52.03;100931.13;4929794;29;20032;-89
2022/10/16 14:54:17;;;;;;;65.65;25.45;;;;;;;10.19;52.22;100934.97;4935308;29;20036;-88
2022/10/16 14:56:46;;;;;;;50.42;20.90;;;;;;;10.30;52.71;100961.25;4923197;29;20133;-91
2022/10/16 14:59:37;;;;;;;53.75;20.70;;;;;;;10.02;52.55;100927.81;4935378;29;20123;-89
2022/10/16 15:02:30;;;;;;;65.40;22.17;;;;;;;10.14;52.70;100962.28;4925878;29;20039;-91
2022/10/16 15:04:58;;;;;;;60.47;24.98;;;;;;;10.00;52.93;100948.28;4933238;29;20044;-91
2022/10/16 15:07:25;;;;;;;57.90;23.92;;;;;;;10.09;59.10;100952.16;4918164;29;20402;-89
2022/10/16 15:09:53;;;;;;;69.07;26.45;;;;;;;9.84;53.19;100917.41;4891205;29;20070;-91
2022/10/16 15:12:19;;;;;;;65.15;23.52;;;;;;;9.94;53.81;100939.28;4886955;29;20055;-93
2022/10/16 15:14:45;;;;;;;98.60;34.60;;;;;;;9.88;53.14;100943.09;4883999;29;20092;-87
2022/10/16 15:17:12;;;;;;;148.77;52.47;;;;;;;9.96;53.46;100952.66;4917535;29;20085;-88
2022/10/16 15:19:38;;;;;;;180.10;69.00;;;;;;;9.97;53.35;100968.81;4914084;29;20527;-88
2022/10/16 15:22:04;;;;;;;151.07;58.50;;;;;;;9.72;53.47;100928.53;4904321;29;20051;-87
2022/10/16 15:24:31;;;;;;;;;;;;;;;9.85;53.67;100960.81;4920048;29;20525;-87
2022/10/16 15:26:57;;;;;;;135.73;47.60;;;;;;;9.56;54.22;100932.31;4918029;29;19922;-87
2022/10/16 15:29:23;;;;;;;103.07;34.78;;;;;;;9.48;54.04;100917.25;4914519;29;20043;-88
2022/10/16 15:31:49;;;;;;;110.70;35.42;;;;;;;9.16;54.43;100888.16;4883861;29;20047;-91
2022/10/16 15:34:19;;;;;;;75.60;27.00;;;;;;;9.50;54.60;100930.63;4907865;29;20078;-88
2022/10/16 15:36:45;;;;;;;78.70;24.65;;;;;;;9.35;54.33;100909.56;4904211;29;20044;-89
2022/10/16 15:39:17;;;;;;;68.28;22.95;;;;;;;9.20;54.50;100893.09;4905680;29;20040;-90
2022/10/16 15:41:44;;;;;;;65.05;21.60;;;;;;;9.03;54.40;100877.72;4896513;29;20094;-89
2022/10/16 15:44:11;;;;;;;55.22;21.33;;;;;;;9.30;54.79;100934.91;4915107;29;20573;-89
2022/10/16 15:46:37;;;;;;;53.93;20.37;;;;;;;9.00;54.77;100896.53;4903536;29;20524;-88
2022/10/16 15:49:04;;;;;;;51.50;19.17;;;;;;;9.05;55.21;100907.50;4918229;29;20051;-89
2022/10/16 15:51:32;;;;;;;51.50;17.85;;;;;;;9.26;55.12;100950.16;4933597;29;20090;-88
2022/10/16 15:54:01;;;;;;;37.75;16.33;;;;;;;9.32;55.41;100968.22;4918579;29;20043;-88
2022/10/16 15:56:28;;;;;;;46.60;14.02;;;;;;;8.81;55.34;100890.72;4902164;29;20043;-87
2022/10/16 15:58:54;;;;;;;43.25;13.88;;;;;;;8.91;55.39;100902.50;4918193;29;20463;-90
2022/10/16 16:01:21;;;;;;;38.05;12.60;;;;;;;8.99;55.32;100916.72;4934791;29;20118;-87
2022/10/16 16:03:47;;;;;;;29.23;10.70;;;;;;;8.64;55.78;100877.19;4933871;29;20139;-88
2022/10/16 16:06:14;;;;;;;46.63;10.82;;;;;;;8.82;55.25;100911.44;4917808;29;20326;-89
2022/10/16 16:08:40;;;;;;;83.03;19.65;;;;;;;8.96;55.94;100928.16;4933925;29;20083;-90
2022/10/16 16:11:12;;;;;;;92.80;26.60;;;;;;;8.96;55.60;100920.78;4920074;29;20171;-89
2022/10/16 16:13:41;;;;;;;46.17;14.13;;;;;;;8.90;55.56;100927.28;4919219;29;20043;-89
2022/10/16 16:16:14;;;;;;;31.38;12.40;;;;;;;8.53;55.90;100880.94;4903834;29;20477;-90
2022/10/16 16:18:40;;;;;;;38.28;13.40;;;;;;;8.70;55.59;100903.41;4919523;29;20040;-89
2022/10/16 16:21:07;;;;;;;41.00;13.50;;;;;;;8.51;55.78;100880.38;4919477;29;20044;-90
2022/10/16 16:23:33;;;;;;;38.15;13.10;;;;;;;8.60;55.85;100903.34;4918539;29;20056;-90
2022/10/16 16:26:09;;;;;;;40.20;13.05;;;;;;;8.84;55.84;100955.59;4918474;29;20054;-90
2022/10/16 16:28:36;;;;;;;45.90;13.85;;;;;;;8.83;55.92;100956.69;4902920;29;20059;-91
2022/10/16 16:31:03;;;;;;;31.67;12.52;;;;;;;8.79;56.03;100950.13;4934579;29;20050;-91
2022/10/16 16:33:31;;;;;;;38.50;12.68;;;;;;;8.34;55.91;100886.75;4933748;29;20044;-92
2022/10/16 16:36:03;;;;;;;33.83;12.27;;;;;;;8.59;56.44;100921.63;4888083;29;20394;-92
2022/10/16 16:38:29;;;;;;;63.00;13.95;;;;;;;8.56;56.50;100916.69;4898692;29;20043;-88
2022/10/16 16:40:56;;;;;;;36.03;12.90;;;;;;;8.17;56.88;100867.81;4917695;29;20063;-91
2022/10/16 16:43:26;;;;;;;36.05;13.35;;;;;;;8.64;56.71;100943.47;4934262;29;20665;-90
2022/10/16 16:45:54;;;;;;;35.90;14.32;;;;;;;8.41;56.90;100905.63;4903883;29;20106;-89
2022/10/16 16:48:21;;;;;;;41.42;13.00;;;;;;;8.14;56.82;100873.75;4933413;29;20521;-93
2022/10/16 16:50:49;;;;;;;43.58;14.75;;;;;;;8.19;57.12;100875.72;4918252;29;20034;-91